Time,TemperatureF,DewpointF,PressureIn,WindDirection,WindDirectionDegrees,WindSpeedMPH,WindSpeedGustMPH,Humidity,HourlyPrecipIn,Conditions,Clouds,dailyrainin,SoftwareType,DateUTC
2013-04-17 00:00:00,57.0,51.2,30.06,West,268,1.0,7.0,81,0.00,,---,0.00,VWS V14.01,2013-04-17 04:00:00,
2013-04-17 00:05:00,57.0,51.2,30.05,ESE,106,1.0,10.0,81,0.00,,---,0.00,VWS V14.01,2013-04-17 04:05:00,
2013-04-17 00:10:00,57.1,51.3,30.05,SW,220,0.0,13.0,81,0.00,,---,0.00,VWS V14.01,2013-04-17 04:10:00,
2013-04-17 00:15:00,57.2,51.1,30.05,SSW,195,6.0,10.0,80,0.00,,---,0.00,VWS V14.01,2013-04-17 04:15:00,
2013-04-17 00:20:00,57.4,51.3,30.05,NW,314,2.0,12.0,80,0.00,,---,0.00,VWS V14.01,2013-04-17 04:20:00,
2013-04-17 00:25:00,57.5,51.4,30.06,NNW,343,5.0,6.0,80,0.00,,---,0.00,VWS V14.01,2013-04-17 04:25:00,
2013-04-17 00:30:00,57.6,51.5,30.06,SSE,147,0.0,12.0,80,0.00,,---,0.00,VWS V14.01,2013-04-17 04:30:00,
2013-04-17 00:35:00,57.6,51.5,30.06,NNW,337,2.0,12.0,80,0.00,,---,0.00,VWS V14.01,2013-04-17 04:35:00,
2013-04-17 00:40:00,57.7,51.2,30.06,SSW,194,1.0,6.0,79,0.00,,---,0.00,VWS V14.01,2013-04-17 04:40:00,
2013-04-17 00:45:00,57.7,51.6,30.06,SSW,206,0.0,9.0,80,0.00,,---,0.00,VWS V14.01,2013-04-17 04:45:00,
2013-04-17 00:50:00,57.7,51.6,30.06,ESE,118,3.0,13.0,80,0.00,,---,0.00,VWS V14.01,2013-04-17 04:50:00,
2013-04-17 00:55:00,57.7,51.6,30.06,NW,308,5.0,7.0,80,0.00,,---,0.00,VWS V14.01,2013-04-17 04:55:00,
2013-04-17 01:00:00,57.7,51.2,30.06,NNW,327,3.0,12.0,79,0.00,,---,0.00,VWS V14.01,2013-04-17 05:00:00,
2013-04-17 01:05:00,57.7,51.2,30.07,NNW,335,2.0,11.0,79,0.00,,---,0.00,VWS V14.01,2013-04-17 05:05:00,
2013-04-17 01:10:00,57.6,51.5,30.08,West,264,2.0,7.0,80,0.00,,---,0.00,VWS V14.01,2013-04-17 05:10:00,
2013-04-17 01:15:00,57.5,51.4,30.08,NE,35,4.0,6.0,80,0.00,,---,0.00,VWS V14.01,2013-04-17 05:15:00,
2013-04-17 01:20:00,57.5,51.7,30.08,WSW,239,1.0,11.0,81,0.00,,---,0.00,VWS V14.01,2013-04-17 05:20:00,
2013-04-17 01:25:00,57.3,51.5,30.07,SSW,198,0.0,5.0,81,0.00,,---,0.00,VWS V14.01,2013-04-17 05:25:00,
2013-04-17 01:30:00,57.1,51.7,30.07,NNE,19,0.0,6.0,82,0.00,,---,0.00,VWS V14.01,2013-04-17 05:30:00,
2013-04-17 01:35:00,56.9,51.5,30.07,SW,214,3.0,9.0,82,0.00,,---,0.00,VWS V14.01,2013-04-17 05:35:00,
2013-04-17 01:40:00,56.9,51.5,30.07,NNW,340,0.0,8.0,82,0.00,,---,0.00,VWS V14.01,2013-04-17 05:40:00,
2013-04-17 01:45:00,56.9,51.8,30.06,NW,321,0.0,4.0,83,0.00,,---,0.00,VWS V14.01,2013-04-17 05:45:00,
2013-04-17 01:50:00,56.8,51.7,30.07,SSW,195,6.0,12.0,83,0.00,,---,0.00,VWS V14.01,2013-04-17 05:50:00,
2013-04-17 01:55:00,56.8,51.7,30.07,SW,231,3.0,11.0,83,0.00,,---,0.00,VWS V14.01,2013-04-17 05:55:00,
2013-04-17 02:00:00,56.7,51.9,30.07,South,176,2.0,9.0,84,0.00,,---,0.00,VWS V14.01,2013-04-17 06:00:00,
2013-04-17 02:05:00,56.6,51.8,30.07,SSE,147,0.0,5.0,84,0.00,,---,0.00,VWS V14.01,2013-04-17 06:05:00,
2013-04-17 02:10:00,56.6,51.8,30.07,NW,309,1.0,9.0,84,0.00,,---,0.00,VWS V14.01,2013-04-17 06:10:00,
2013-04-17 02:15:00,56.6,51.8,30.07,NNE,13,3.0,4.0,84,0.00,,---,0.00,VWS V14.01,2013-04-17 06:15:00,
2013-04-17 02:20:00,56.7,51.9,30.07,WSW,242,0.0,7.0,84,0.00,,---,0.00,VWS V14.01,2013-04-17 06:20:00,
2013-04-17 02:25:00,56.7,51.9,30.07,East,92,0.0,6.0,84,0.00,,---,0.00,VWS V14.01,2013-04-17 06:25:00,
2013-04-17 02:30:00,56.7,51.9,30.07,NW,314,2.0,5.0,84,0.00,,---,0.00,VWS V14.01,2013-04-17 06:30:00,
2013-04-17 02:35:00,56.7,51.9,30.08,North,350,2.0,4.0,84,0.00,,---,0.00,VWS V14.01,2013-04-17 06:35:00,
2013-04-17 02:40:00,56.7,51.9,30.08,NW,310,1.0,4.0,84,0.00,,---,0.00,VWS V14.01,2013-04-17 06:40:00,
2013-04-17 02:45:00,56.8,52.3,30.08,North,360,3.0,9.0,85,0.00,,---,0.00,VWS V14.01,2013-04-17 06:45:00,
2013-04-17 02:50:00,56.8,52.3,30.08,West,277,3.0,5.0,85,0.00,,---,0.00,VWS V14.01,2013-04-17 06:50:00,
2013-04-17 02:55:00,56.8,52.7,30.08,WSW,244,0.0,6.0,86,0.00,,---,0.00,VWS V14.01,2013-04-17 06:55:00,
2013-04-17 03:00:00,56.7,52.6,30.08,NNW,345,3.0,6.0,86,0.00,,---,0.00,VWS V14.01,2013-04-17 07:00:00,
2013-04-17 03:05:00,56.7,52.6,30.08,WNW,298,0.0,11.0,86,0.00,,---,0.00,VWS V14.01,2013-04-17 07:05:00,
2013-04-17 03:10:00,56.8,52.7,30.08,WNW,298,1.0,13.0,86,0.00,,---,0.00,VWS V14.01,2013-04-17 07:10:00,
2013-04-17 03:15:00,56.7,52.6,30.08,SSW,196,0.0,4.0,86,0.00,,---,0.00,VWS V14.01,2013-04-17 07:15:00,
2013-04-17 03:20:00,56.8,52.7,30.08,WSW,258,1.0,7.0,86,0.00,,---,0.00,VWS V14.01,2013-04-17 07:20:00,
2013-04-17 03:25:00,56.8,52.7,30.08,SSE,167,1.0,7.0,86,0.00,,---,0.00,VWS V14.01,2013-04-17 07:25:00,
2013-04-17 03:30:00,56.8,52.7,30.08,WNW,298,4.0,7.0,86,0.00,,---,0.00,VWS V14.01,2013-04-17 07:30:00,
2013-04-17 03:35:00,56.8,52.7,30.08,NNE,23,1.0,7.0,86,0.00,,---,0.00,VWS V14.01,2013-04-17 07:35:00,
2013-04-17 03:40:00,56.7,52.2,30.07,SSE,154,0.0,7.0,85,0.00,,---,0.00,VWS V14.01,2013-04-17 07:40:00,
2013-04-17 03:45:00,56.7,51.9,30.08,North,356,3.0,10.0,84,0.00,,---,0.00,VWS V14.01,2013-04-17 07:45:00,
2013-04-17 03:50:00,56.7,51.6,30.08,NW,319,1.0,6.0,83,0.00,,---,0.00,VWS V14.01,2013-04-17 07:50:00,
2013-04-17 03:55:00,56.7,51.6,30.08,WNW,297,2.0,6.0,83,0.00,,---,0.00,VWS V14.01,2013-04-17 07:55:00,
2013-04-17 04:00:00,56.7,51.6,30.08,North,2,0.0,7.0,83,0.00,,---,0.00,VWS V14.01,2013-04-17 08:00:00,
2013-04-17 04:05:00,56.6,51.5,30.08,NNW,331,1.0,7.0,83,0.00,,---,0.00,VWS V14.01,2013-04-17 08:05:00,
2013-04-17 04:10:00,56.6,50.8,30.08,NE,35,5.0,6.0,81,0.00,,---,0.00,VWS V14.01,2013-04-17 08:10:00,
2013-04-17 04:15:00,56.5,50.1,30.08,NNW,339,3.0,10.0,79,0.00,,---,0.00,VWS V14.01,2013-04-17 08:15:00,
2013-04-17 04:20:00,56.3,47.4,30.09,NNW,342,5.0,10.0,72,0.00,,---,0.00,VWS V14.01,2013-04-17 08:20:00,
2013-04-17 04:25:00,56.1,46.1,30.09,NW,323,4.0,9.0,69,0.00,,---,0.00,VWS V14.01,2013-04-17 08:25:00,
2013-04-17 04:30:00,56.0,45.6,30.09,North,354,2.0,9.0,68,0.00,,---,0.00,VWS V14.01,2013-04-17 08:30:00,
2013-04-17 04:35:00,55.8,45.0,30.09,NNW,333,4.0,9.0,67,0.00,,---,0.00,VWS V14.01,2013-04-17 08:35:00,
2013-04-17 04:40:00,55.6,44.8,30.09,North,357,1.0,11.0,67,0.00,,---,0.00,VWS V14.01,2013-04-17 08:40:00,
2013-04-17 04:45:00,55.4,45.0,30.10,North,6,1.0,12.0,68,0.00,,---,0.00,VWS V14.01,2013-04-17 08:45:00,
2013-04-17 04:50:00,55.3,44.5,30.10,North,354,3.0,9.0,67,0.00,,---,0.00,VWS V14.01,2013-04-17 08:50:00,
2013-04-17 04:55:00,55.0,44.7,30.10,North,11,2.0,8.0,68,0.00,,---,0.00,VWS V14.01,2013-04-17 08:55:00,
2013-04-17 05:00:00,54.8,44.8,30.10,North,6,6.0,6.0,69,0.00,,---,0.00,VWS V14.01,2013-04-17 09:00:00,
2013-04-17 05:05:00,54.5,44.5,30.10,NW,310,2.0,7.0,69,0.00,,---,0.00,VWS V14.01,2013-04-17 09:05:00,
2013-04-17 05:10:00,54.3,44.7,30.10,NNW,344,0.0,7.0,70,0.00,,---,0.00,VWS V14.01,2013-04-17 09:10:00,
2013-04-17 05:15:00,54.2,44.6,30.10,NW,326,2.0,6.0,70,0.00,,---,0.00,VWS V14.01,2013-04-17 09:15:00,
2013-04-17 05:20:00,54.0,44.8,30.10,NW,309,0.0,5.0,71,0.00,,---,0.00,VWS V14.01,2013-04-17 09:20:00,
2013-04-17 05:25:00,53.9,44.7,30.10,NE,56,2.0,4.0,71,0.00,,---,0.00,VWS V14.01,2013-04-17 09:25:00,
2013-04-17 05:30:00,53.8,44.6,30.10,NNW,327,1.0,5.0,71,0.00,,---,0.00,VWS V14.01,2013-04-17 09:30:00,
2013-04-17 05:35:00,53.7,44.5,30.10,NNW,333,1.0,5.0,71,0.00,,---,0.00,VWS V14.01,2013-04-17 09:35:00,
2013-04-17 05:40:00,53.6,44.4,30.11,NW,321,0.0,5.0,71,0.00,,---,0.00,VWS V14.01,2013-04-17 09:40:00,
2013-04-17 05:45:00,53.5,44.3,30.11,North,352,0.0,4.0,71,0.00,,---,0.00,VWS V14.01,2013-04-17 09:45:00,
2013-04-17 05:50:00,53.4,44.6,30.11,North,358,0.0,6.0,72,0.00,,---,0.00,VWS V14.01,2013-04-17 09:50:00,
2013-04-17 05:55:00,53.2,44.4,30.11,North,355,0.0,3.0,72,0.00,,---,0.00,VWS V14.01,2013-04-17 09:55:00,
2013-04-17 06:00:00,53.1,44.3,30.11,NE,53,3.0,3.0,72,0.00,,---,0.00,VWS V14.01,2013-04-17 10:00:00,
2013-04-17 06:05:00,53.0,44.6,30.12,WNW,282,0.0,5.0,73,0.00,,---,0.00,VWS V14.01,2013-04-17 10:05:00,
2013-04-17 06:10:00,53.0,44.2,30.12,WNW,285,1.0,9.0,72,0.00,,---,0.00,VWS V14.01,2013-04-17 10:10:00,
2013-04-17 06:15:00,52.9,44.1,30.12,North,7,0.0,5.0,72,0.00,,---,0.00,VWS V14.01,2013-04-17 10:15:00,
2013-04-17 06:20:00,52.8,44.4,30.12,NW,306,4.0,4.0,73,0.00,,---,0.00,VWS V14.01,2013-04-17 10:20:00,
2013-04-17 06:25:00,52.6,44.2,30.12,WNW,295,0.0,4.0,73,0.00,,---,0.00,VWS V14.01,2013-04-17 10:25:00,
2013-04-17 06:30:00,52.4,44.0,30.12,NW,317,0.0,3.0,73,0.00,,---,0.00,VWS V14.01,2013-04-17 10:30:00,
2013-04-17 06:35:00,52.3,43.9,30.13,West,277,0.0,1.0,73,0.00,,---,0.00,VWS V14.01,2013-04-17 10:35:00,
2013-04-17 06:40:00,52.3,43.9,30.13,West,277,0.0,1.0,73,0.00,,---,0.00,VWS V14.01,2013-04-17 10:40:00,
2013-04-17 06:45:00,52.3,43.9,30.13,West,277,0.0,2.0,73,0.00,,---,0.00,VWS V14.01,2013-04-17 10:45:00,
2013-04-17 06:50:00,52.2,43.1,30.14,NNW,344,4.0,4.0,71,0.00,,---,0.00,VWS V14.01,2013-04-17 10:50:00,
2013-04-17 06:55:00,52.5,41.9,30.13,WNW,300,3.0,11.0,67,0.00,,---,0.00,VWS V14.01,2013-04-17 10:55:00,
2013-04-17 07:00:00,52.6,41.6,30.14,NNE,30,6.0,12.0,66,0.00,,---,0.00,VWS V14.01,2013-04-17 11:00:00,
2013-04-17 07:05:00,52.7,40.9,30.14,NNW,335,2.0,10.0,64,0.00,,---,0.00,VWS V14.01,2013-04-17 11:05:00,
2013-04-17 07:10:00,52.6,41.2,30.14,ENE,73,1.0,14.0,65,0.00,,---,0.00,VWS V14.01,2013-04-17 11:10:00,
2013-04-17 07:15:00,52.7,41.3,30.15,WNW,297,3.0,13.0,65,0.00,,---,0.00,VWS V14.01,2013-04-17 11:15:00,
2013-04-17 07:20:00,52.7,40.9,30.14,NW,310,2.0,11.0,64,0.00,,---,0.00,VWS V14.01,2013-04-17 11:20:00,
2013-04-17 07:25:00,52.7,41.3,30.15,North,1,2.0,5.0,65,0.00,,---,0.00,VWS V14.01,2013-04-17 11:25:00,
2013-04-17 07:30:00,52.7,41.3,30.15,NNE,25,4.0,11.0,65,0.00,,---,0.00,VWS V14.01,2013-04-17 11:30:00,
2013-04-17 07:35:00,52.7,41.3,30.15,North,351,0.0,12.0,65,0.00,,---,0.00,VWS V14.01,2013-04-17 11:35:00,
2013-04-17 07:40:00,52.8,41.4,30.16,North,352,0.0,11.0,65,0.00,,---,0.00,VWS V14.01,2013-04-17 11:40:00,
2013-04-17 07:45:00,53.0,41.6,30.16,NW,315,4.0,13.0,65,0.00,,---,0.00,VWS V14.01,2013-04-17 11:45:00,
2013-04-17 07:50:00,53.1,41.3,30.16,NW,319,2.0,10.0,64,0.00,,---,0.00,VWS V14.01,2013-04-17 11:50:00,
2013-04-17 07:55:00,53.2,41.3,30.16,NNE,18,0.0,6.0,64,0.00,,---,0.00,VWS V14.01,2013-04-17 11:55:00,
2013-04-17 08:00:00,53.4,41.1,30.16,NNW,344,2.0,10.0,63,0.00,,---,0.00,VWS V14.01,2013-04-17 12:00:00,
2013-04-17 08:05:00,53.5,41.2,30.17,NNE,30,1.0,6.0,63,0.00,,---,0.00,VWS V14.01,2013-04-17 12:05:00,
2013-04-17 08:10:00,53.7,41.4,30.17,North,349,1.0,10.0,63,0.00,,---,0.00,VWS V14.01,2013-04-17 12:10:00,
2013-04-17 08:15:00,53.6,40.9,30.16,North,5,3.0,11.0,62,0.00,,---,0.00,VWS V14.01,2013-04-17 12:15:00,
2013-04-17 08:20:00,53.8,41.5,30.17,NW,321,1.0,6.0,63,0.00,,---,0.00,VWS V14.01,2013-04-17 12:20:00,
2013-04-17 08:25:00,54.0,41.3,30.17,ENE,77,8.0,10.0,62,0.00,,---,0.00,VWS V14.01,2013-04-17 12:25:00,
2013-04-17 08:30:00,54.1,41.4,30.17,NW,317,5.0,10.0,62,0.00,,---,0.00,VWS V14.01,2013-04-17 12:30:00,
2013-04-17 08:35:00,54.2,41.1,30.17,NNE,30,0.0,11.0,61,0.00,,---,0.00,VWS V14.01,2013-04-17 12:35:00,
2013-04-17 08:40:00,54.7,41.5,30.17,ENE,69,5.0,10.0,61,0.00,,---,0.00,VWS V14.01,2013-04-17 12:40:00,
2013-04-17 08:45:00,54.9,42.1,30.18,NE,40,5.0,6.0,62,0.00,,---,0.00,VWS V14.01,2013-04-17 12:45:00,
2013-04-17 08:50:00,55.2,41.1,30.18,NNE,17,7.0,10.0,59,0.00,,---,0.00,VWS V14.01,2013-04-17 12:50:00,
2013-04-17 08:55:00,55.0,40.5,30.17,NNE,15,2.0,12.0,58,0.00,,---,0.00,VWS V14.01,2013-04-17 12:55:00,
2013-04-17 09:00:00,55.2,41.6,30.18,NNW,331,2.0,9.0,60,0.00,,---,0.00,VWS V14.01,2013-04-17 13:00:00,
2013-04-17 09:05:00,55.5,40.5,30.17,ESE,109,3.0,11.0,57,0.00,,---,0.00,VWS V14.01,2013-04-17 13:05:00,
2013-04-17 09:10:00,55.4,41.3,30.18,NNW,339,1.0,7.0,59,0.00,,---,0.00,VWS V14.01,2013-04-17 13:10:00,
2013-04-17 09:15:00,55.4,40.4,30.18,NE,46,2.0,10.0,57,0.00,,---,0.00,VWS V14.01,2013-04-17 13:15:00,
2013-04-17 09:20:00,55.2,39.8,30.18,NNW,334,2.0,9.0,56,0.00,,---,0.00,VWS V14.01,2013-04-17 13:20:00,
2013-04-17 09:25:00,54.7,40.2,30.18,NNE,21,3.0,12.0,58,0.00,,---,0.00,VWS V14.01,2013-04-17 13:25:00,
2013-04-17 09:30:00,55.0,40.1,30.18,NNW,348,4.0,7.0,57,0.00,,---,0.00,VWS V14.01,2013-04-17 13:30:00,
2013-04-17 09:35:00,55.2,40.2,30.18,WNW,296,3.0,10.0,57,0.00,,---,0.00,VWS V14.01,2013-04-17 13:35:00,
2013-04-17 09:40:00,55.4,40.0,30.19,North,360,1.0,10.0,56,0.00,,---,0.00,VWS V14.01,2013-04-17 13:40:00,
2013-04-17 09:45:00,55.6,39.7,30.19,NW,321,3.0,7.0,55,0.00,,---,0.00,VWS V14.01,2013-04-17 13:45:00,
2013-04-17 09:50:00,55.7,40.3,30.18,NNW,327,3.0,7.0,56,0.00,,---,0.00,VWS V14.01,2013-04-17 13:50:00,
2013-04-17 09:55:00,55.7,39.8,30.18,North,8,2.0,6.0,55,0.00,,---,0.00,VWS V14.01,2013-04-17 13:55:00,
2013-04-17 10:00:00,56.2,39.3,30.19,NE,35,4.0,9.0,53,0.00,,---,0.00,VWS V14.01,2013-04-17 14:00:00,
2013-04-17 10:05:00,56.2,39.3,30.18,East,101,0.0,11.0,53,0.00,,---,0.00,VWS V14.01,2013-04-17 14:05:00,
2013-04-17 10:10:00,56.4,39.0,30.19,NW,315,4.0,10.0,52,0.00,,---,0.00,VWS V14.01,2013-04-17 14:10:00,
2013-04-17 10:15:00,56.4,39.0,30.19,NW,319,3.0,11.0,52,0.00,,---,0.00,VWS V14.01,2013-04-17 14:15:00,
2013-04-17 10:20:00,56.6,39.2,30.19,North,356,1.0,10.0,52,0.00,,---,0.00,VWS V14.01,2013-04-17 14:20:00,
2013-04-17 10:25:00,57.0,37.5,30.19,North,8,5.0,13.0,48,0.00,,---,0.00,VWS V14.01,2013-04-17 14:25:00,
2013-04-17 10:30:00,57.1,37.1,30.19,NW,304,11.0,11.0,47,0.00,,---,0.00,VWS V14.01,2013-04-17 14:30:00,
2013-04-17 10:35:00,57.1,37.6,30.19,North,10,5.0,11.0,48,0.00,,---,0.00,VWS V14.01,2013-04-17 14:35:00,
2013-04-17 10:40:00,57.5,37.5,30.19,NNW,348,5.0,13.0,47,0.00,,---,0.00,VWS V14.01,2013-04-17 14:40:00,
2013-04-17 10:45:00,57.7,38.2,30.19,NNE,30,5.0,10.0,48,0.00,,---,0.00,VWS V14.01,2013-04-17 14:45:00,
2013-04-17 10:50:00,57.4,39.9,30.19,West,259,5.0,9.0,52,0.00,,---,0.00,VWS V14.01,2013-04-17 14:50:00,
2013-04-17 10:55:00,57.8,35.5,30.19,WNW,298,4.0,10.0,43,0.00,,---,0.00,VWS V14.01,2013-04-17 14:55:00,
2013-04-17 11:00:00,58.1,34.5,30.19,NNW,345,5.0,12.0,41,0.00,,---,0.00,VWS V14.01,2013-04-17 15:00:00,
2013-04-17 11:05:00,57.9,35.6,30.19,North,349,3.0,10.0,43,0.00,,---,0.00,VWS V14.01,2013-04-17 15:05:00,
2013-04-17 11:10:00,58.0,37.4,30.19,North,2,3.0,10.0,46,0.00,,---,0.00,VWS V14.01,2013-04-17 15:10:00,
2013-04-17 11:15:00,58.2,35.8,30.19,West,269,0.0,11.0,43,0.00,,---,0.00,VWS V14.01,2013-04-17 15:15:00,
2013-04-17 11:20:00,58.5,36.7,30.19,NE,35,8.0,8.0,44,0.00,,---,0.00,VWS V14.01,2013-04-17 15:20:00,
2013-04-17 11:25:00,58.5,36.7,30.19,NNW,334,0.0,10.0,44,0.00,,---,0.00,VWS V14.01,2013-04-17 15:25:00,
2013-04-17 11:30:00,58.8,35.8,30.19,North,3,2.0,10.0,42,0.00,,---,0.00,VWS V14.01,2013-04-17 15:30:00,
2013-04-17 11:35:00,58.9,35.3,30.19,NW,308,4.0,13.0,41,0.00,,---,0.00,VWS V14.01,2013-04-17 15:35:00,
2013-04-17 11:40:00,59.2,38.5,30.19,ENE,59,0.0,13.0,46,0.00,,---,0.00,VWS V14.01,2013-04-17 15:40:00,
2013-04-17 11:45:00,59.8,37.9,30.19,WNW,294,1.0,4.0,44,0.00,,---,0.00,VWS V14.01,2013-04-17 15:45:00,
2013-04-17 11:50:00,60.2,36.4,30.19,North,4,4.0,9.0,41,0.00,,---,0.00,VWS V14.01,2013-04-17 15:50:00,
2013-04-17 11:55:00,59.6,34.6,30.19,WSW,241,3.0,7.0,39,0.00,,---,0.00,VWS V14.01,2013-04-17 15:55:00,
2013-04-17 12:00:00,59.9,35.5,30.19,West,260,1.0,7.0,40,0.00,,---,0.00,VWS V14.01,2013-04-17 16:00:00,
2013-04-17 12:05:00,60.1,34.4,30.19,West,271,1.0,9.0,38,0.00,,---,0.00,VWS V14.01,2013-04-17 16:05:00,
2013-04-17 12:10:00,60.3,35.9,30.18,NW,324,2.0,10.0,40,0.00,,---,0.00,VWS V14.01,2013-04-17 16:10:00,
2013-04-17 12:15:00,60.4,36.0,30.18,NNW,346,3.0,10.0,40,0.00,,---,0.00,VWS V14.01,2013-04-17 16:15:00,
2013-04-17 12:20:00,60.6,34.2,30.18,North,8,2.0,8.0,37,0.00,,---,0.00,VWS V14.01,2013-04-17 16:20:00,
2013-04-17 12:25:00,60.8,33.7,30.18,NE,35,4.0,9.0,36,0.00,,---,0.00,VWS V14.01,2013-04-17 16:25:00,
2013-04-17 12:30:00,60.5,33.4,30.18,SW,219,1.0,10.0,36,0.00,,---,0.00,VWS V14.01,2013-04-17 16:30:00,
2013-04-17 12:35:00,60.8,36.3,30.18,North,8,3.0,8.0,40,0.00,,---,0.00,VWS V14.01,2013-04-17 16:35:00,
2013-04-17 12:40:00,61.2,33.3,30.18,North,352,3.0,9.0,35,0.00,,---,0.00,VWS V14.01,2013-04-17 16:40:00,
2013-04-17 12:45:00,60.7,33.6,30.18,NNE,13,1.0,6.0,36,0.00,,---,0.00,VWS V14.01,2013-04-17 16:45:00,
2013-04-17 12:50:00,61.0,34.6,30.17,NNW,336,1.0,10.0,37,0.00,,---,0.00,VWS V14.01,2013-04-17 16:50:00,
2013-04-17 12:55:00,61.6,33.7,30.17,North,11,1.0,7.0,35,0.00,,---,0.00,VWS V14.01,2013-04-17 16:55:00,
2013-04-17 13:00:00,62.1,38.1,30.18,NNW,329,0.0,5.0,41,0.00,,---,0.00,VWS V14.01,2013-04-17 17:00:00,
2013-04-17 13:05:00,62.6,36.7,30.17,ESE,117,2.0,5.0,38,0.00,,---,0.00,VWS V14.01,2013-04-17 17:05:00,
2013-04-17 13:10:00,63.0,34.9,30.17,NNW,337,0.0,5.0,35,0.00,,---,0.00,VWS V14.01,2013-04-17 17:10:00,
2013-04-17 13:15:00,62.5,35.2,30.17,NW,314,0.0,12.0,36,0.00,,---,0.00,VWS V14.01,2013-04-17 17:15:00,
2013-04-17 13:20:00,62.2,34.9,30.17,North,350,1.0,11.0,36,0.00,,---,0.00,VWS V14.01,2013-04-17 17:20:00,
2013-04-17 13:25:00,62.3,35.0,30.17,WNW,294,2.0,6.0,36,0.00,,---,0.00,VWS V14.01,2013-04-17 17:25:00,
2013-04-17 13:30:00,62.6,37.3,30.17,East,92,1.0,5.0,39,0.00,,---,0.00,VWS V14.01,2013-04-17 17:30:00,
2013-04-17 13:35:00,63.4,36.7,30.17,NE,40,5.0,5.0,37,0.00,,---,0.00,VWS V14.01,2013-04-17 17:35:00,
2013-04-17 13:40:00,63.3,34.5,30.17,NNW,341,6.0,9.0,34,0.00,,---,0.00,VWS V14.01,2013-04-17 17:40:00,
2013-04-17 13:45:00,62.7,33.2,30.17,NNE,15,6.0,10.0,33,0.00,,---,0.00,VWS V14.01,2013-04-17 17:45:00,
2013-04-17 13:50:00,62.9,34.1,30.17,ENE,73,3.0,10.0,34,0.00,,---,0.00,VWS V14.01,2013-04-17 17:50:00,
2013-04-17 13:55:00,63.1,32.8,30.17,NW,312,6.0,10.0,32,0.00,,---,0.00,VWS V14.01,2013-04-17 17:55:00,
2013-04-17 14:00:00,63.5,33.9,30.17,NW,304,2.0,9.0,33,0.00,,---,0.00,VWS V14.01,2013-04-17 18:00:00,
2013-04-17 14:05:00,63.5,36.8,30.17,East,86,1.0,7.0,37,0.00,,---,0.00,VWS V14.01,2013-04-17 18:05:00,
2013-04-17 14:10:00,63.7,33.3,30.17,NW,314,4.0,7.0,32,0.00,,---,0.00,VWS V14.01,2013-04-17 18:10:00,
2013-04-17 14:15:00,63.5,36.8,30.16,West,268,2.0,7.0,37,0.00,,---,0.00,VWS V14.01,2013-04-17 18:15:00,
2013-04-17 14:20:00,64.0,35.8,30.16,South,188,2.0,5.0,35,0.00,,---,0.00,VWS V14.01,2013-04-17 18:20:00,
2013-04-17 14:25:00,64.0,32.0,30.17,North,356,2.0,11.0,30,0.00,,---,0.00,VWS V14.01,2013-04-17 18:25:00,
2013-04-17 14:30:00,64.1,33.7,30.17,WNW,296,4.0,11.0,32,0.00,,---,0.00,VWS V14.01,2013-04-17 18:30:00,
2013-04-17 14:35:00,63.7,33.3,30.17,North,358,4.0,9.0,32,0.00,,---,0.00,VWS V14.01,2013-04-17 18:35:00,
2013-04-17 14:40:00,63.8,34.9,30.17,North,10,1.0,7.0,34,0.00,,---,0.00,VWS V14.01,2013-04-17 18:40:00,
2013-04-17 14:45:00,64.2,33.8,30.17,NE,47,4.0,5.0,32,0.00,,---,0.00,VWS V14.01,2013-04-17 18:45:00,
2013-04-17 14:50:00,64.3,33.8,30.17,NW,324,0.0,9.0,32,0.00,,---,0.00,VWS V14.01,2013-04-17 18:50:00,
2013-04-17 14:55:00,64.5,32.4,30.17,WSW,252,5.0,11.0,30,0.00,,---,0.00,VWS V14.01,2013-04-17 18:55:00,
2013-04-17 15:00:00,64.7,33.4,30.17,SW,217,6.0,6.0,31,0.00,,---,0.00,VWS V14.01,2013-04-17 19:00:00,
2013-04-17 15:05:00,64.9,33.6,30.17,North,350,2.0,10.0,31,0.00,,---,0.00,VWS V14.01,2013-04-17 19:05:00,
2013-04-17 15:10:00,65.0,32.8,30.18,NNE,18,2.0,8.0,30,0.00,,---,0.00,VWS V14.01,2013-04-17 19:10:00,
2013-04-17 15:15:00,64.8,31.8,30.17,ESE,113,1.0,9.0,29,0.00,,---,0.00,VWS V14.01,2013-04-17 19:15:00,
2013-04-17 15:20:00,65.0,34.5,30.17,North,6,2.0,4.0,32,0.00,,---,0.00,VWS V14.01,2013-04-17 19:20:00,
2013-04-17 15:25:00,65.0,36.0,30.17,NE,35,7.0,10.0,34,0.00,,---,0.00,VWS V14.01,2013-04-17 19:25:00,
2013-04-17 15:30:00,65.4,32.3,30.17,NNE,30,5.0,12.0,29,0.00,,---,0.00,VWS V14.01,2013-04-17 19:30:00,
2013-04-17 15:35:00,65.2,33.8,30.17,NNE,22,6.0,7.0,31,0.00,,---,0.00,VWS V14.01,2013-04-17 19:35:00,
2013-04-17 15:40:00,65.1,33.7,30.17,NW,314,0.0,6.0,31,0.00,,---,0.00,VWS V14.01,2013-04-17 19:40:00,
2013-04-17 15:45:00,65.5,35.7,30.17,North,10,5.0,5.0,33,0.00,,---,0.00,VWS V14.01,2013-04-17 19:45:00,
2013-04-17 15:50:00,65.6,32.5,30.17,WNW,297,1.0,10.0,29,0.00,,---,0.00,VWS V14.01,2013-04-17 19:50:00,
2013-04-17 15:55:00,65.6,33.4,30.17,North,356,1.0,8.0,30,0.00,,---,0.00,VWS V14.01,2013-04-17 19:55:00,
2013-04-17 16:00:00,65.6,34.2,30.17,NNE,23,4.0,7.0,31,0.00,,---,0.00,VWS V14.01,2013-04-17 20:00:00,
2013-04-17 16:05:00,65.8,33.5,30.17,WNW,298,3.0,11.0,30,0.00,,---,0.00,VWS V14.01,2013-04-17 20:05:00,
2013-04-17 16:10:00,65.9,33.6,30.17,NW,316,2.0,6.0,30,0.00,,---,0.00,VWS V14.01,2013-04-17 20:10:00,
2013-04-17 16:15:00,66.1,33.8,30.18,ENE,59,2.0,4.0,30,0.00,,---,0.00,VWS V14.01,2013-04-17 20:15:00,
2013-04-17 16:20:00,66.3,33.1,30.18,NE,46,0.0,5.0,29,0.00,,---,0.00,VWS V14.01,2013-04-17 20:20:00,
2013-04-17 16:25:00,66.0,32.9,30.18,NW,319,2.0,12.0,29,0.00,,---,0.00,VWS V14.01,2013-04-17 20:25:00,
2013-04-17 16:30:00,65.8,31.8,30.18,NNW,339,2.0,6.0,28,0.00,,---,0.00,VWS V14.01,2013-04-17 20:30:00,
2013-04-17 16:35:00,65.5,33.3,30.18,NNE,23,4.0,12.0,30,0.00,,---,0.00,VWS V14.01,2013-04-17 20:35:00,
2013-04-17 16:40:00,65.8,32.7,30.18,NE,44,4.0,6.0,29,0.00,,---,0.00,VWS V14.01,2013-04-17 20:40:00,
2013-04-17 16:45:00,65.8,35.9,30.18,NE,53,5.0,5.0,33,0.00,,---,0.00,VWS V14.01,2013-04-17 20:45:00,
2013-04-17 16:50:00,65.6,31.6,30.18,NNE,25,4.0,10.0,28,0.00,,---,0.00,VWS V14.01,2013-04-17 20:50:00,
2013-04-17 16:55:00,65.6,32.5,30.18,ENE,71,1.0,7.0,29,0.00,,---,0.00,VWS V14.01,2013-04-17 20:55:00,
2013-04-17 17:00:00,65.6,31.6,30.19,NE,35,4.0,6.0,28,0.00,,---,0.00,VWS V14.01,2013-04-17 21:00:00,
2013-04-17 17:05:00,65.5,32.4,30.19,North,360,2.0,11.0,29,0.00,,---,0.00,VWS V14.01,2013-04-17 21:05:00,
2013-04-17 17:10:00,65.3,33.1,30.19,North,354,4.0,7.0,30,0.00,,---,0.00,VWS V14.01,2013-04-17 21:10:00,
2013-04-17 17:15:00,65.4,31.5,30.19,NNE,25,3.0,5.0,28,0.00,,---,0.00,VWS V14.01,2013-04-17 21:15:00,
2013-04-17 17:20:00,65.4,33.2,30.19,NE,35,1.0,9.0,30,0.00,,---,0.00,VWS V14.01,2013-04-17 21:20:00,
2013-04-17 17:25:00,65.4,33.2,30.20,NNE,18,2.0,6.0,30,0.00,,---,0.00,VWS V14.01,2013-04-17 21:25:00,
2013-04-17 17:30:00,65.4,31.5,30.21,NW,323,1.0,5.0,28,0.00,,---,0.00,VWS V14.01,2013-04-17 21:30:00,
2013-04-17 17:35:00,65.4,33.2,30.21,NNE,25,2.0,7.0,30,0.00,,---,0.00,VWS V14.01,2013-04-17 21:35:00,
2013-04-17 17:40:00,65.6,33.4,30.21,NW,321,0.0,5.0,30,0.00,,---,0.00,VWS V14.01,2013-04-17 21:40:00,
2013-04-17 17:45:00,65.8,31.8,30.21,NE,35,2.0,4.0,28,0.00,,---,0.00,VWS V14.01,2013-04-17 21:45:00,
2013-04-17 17:50:00,65.3,31.4,30.21,NNW,336,1.0,9.0,28,0.00,,---,0.00,VWS V14.01,2013-04-17 21:50:00,
2013-04-17 17:55:00,64.8,31.0,30.21,East,98,3.0,12.0,28,0.00,,---,0.00,VWS V14.01,2013-04-17 21:55:00,
2013-04-17 18:00:00,64.2,30.4,30.21,NNE,19,1.0,9.0,28,0.00,,---,0.00,VWS V14.01,2013-04-17 22:00:00,
2013-04-17 18:05:00,63.9,31.9,30.22,NW,308,2.0,6.0,30,0.00,,---,0.00,VWS V14.01,2013-04-17 22:05:00,
2013-04-17 18:10:00,63.8,32.6,30.22,NW,308,4.0,8.0,31,0.00,,---,0.00,VWS V14.01,2013-04-17 22:10:00,
2013-04-17 18:15:00,63.6,31.6,30.23,ENE,77,1.0,6.0,30,0.00,,---,0.00,VWS V14.01,2013-04-17 22:15:00,
2013-04-17 18:20:00,63.6,31.6,30.23,North,354,2.0,3.0,30,0.00,,---,0.00,VWS V14.01,2013-04-17 22:20:00,
2013-04-17 18:25:00,63.2,30.4,30.23,NNW,339,1.0,7.0,29,0.00,,---,0.00,VWS V14.01,2013-04-17 22:25:00,
2013-04-17 18:30:00,62.8,30.9,30.23,North,4,3.0,6.0,30,0.00,,---,0.00,VWS V14.01,2013-04-17 22:30:00,
2013-04-17 18:35:00,62.3,30.5,30.23,NE,44,1.0,8.0,30,0.00,,---,0.00,VWS V14.01,2013-04-17 22:35:00,
2013-04-17 18:40:00,62.0,30.2,30.23,North,9,4.0,5.0,30,0.00,,---,0.00,VWS V14.01,2013-04-17 22:40:00,
2013-04-17 18:45:00,61.7,30.8,30.23,ENE,75,0.0,6.0,31,0.00,,---,0.00,VWS V14.01,2013-04-17 22:45:00,
2013-04-17 18:50:00,61.4,30.5,30.24,NNE,17,4.0,5.0,31,0.00,,---,0.00,VWS V14.01,2013-04-17 22:50:00,
2013-04-17 18:55:00,61.3,29.6,30.24,North,358,0.0,4.0,30,0.00,,---,0.00,VWS V14.01,2013-04-17 22:55:00,
2013-04-17 19:00:00,61.0,31.7,30.24,ENE,65,0.0,2.0,33,0.00,,---,0.00,VWS V14.01,2013-04-17 23:00:00,
2013-04-17 19:05:00,60.6,30.6,30.25,NE,35,0.0,4.0,32,0.00,,---,0.00,VWS V14.01,2013-04-17 23:05:00,
2013-04-17 19:10:00,60.5,31.3,30.25,WNW,298,2.0,2.0,33,0.00,,---,0.00,VWS V14.01,2013-04-17 23:10:00,
2013-04-17 19:15:00,60.2,31.8,30.25,East,89,0.0,5.0,34,0.00,,---,0.00,VWS V14.01,2013-04-17 23:15:00,
2013-04-17 19:20:00,60.2,31.0,30.25,North,3,0.0,5.0,33,0.00,,---,0.00,VWS V14.01,2013-04-17 23:20:00,
2013-04-17 19:25:00,60.0,30.1,30.25,NNW,327,0.0,6.0,32,0.00,,---,0.00,VWS V14.01,2013-04-17 23:25:00,
2013-04-17 19:30:00,59.9,30.0,30.25,NE,46,0.0,6.0,32,0.00,,---,0.00,VWS V14.01,2013-04-17 23:30:00,
2013-04-17 19:35:00,59.6,31.2,30.26,NNE,14,0.0,6.0,34,0.00,,---,0.00,VWS V14.01,2013-04-17 23:35:00,
2013-04-17 19:40:00,59.3,30.2,30.26,NNE,25,0.0,5.0,33,0.00,,---,0.00,VWS V14.01,2013-04-17 23:40:00,
2013-04-17 19:45:00,59.0,30.7,30.26,North,3,0.0,3.0,34,0.00,,---,0.00,VWS V14.01,2013-04-17 23:45:00,
2013-04-17 19:50:00,58.7,30.4,30.26,North,4,0.0,1.0,34,0.00,,---,0.00,VWS V14.01,2013-04-17 23:50:00,
2013-04-17 19:55:00,58.4,30.9,30.27,North,4,0.0,1.0,35,0.00,,---,0.00,VWS V14.01,2013-04-17 23:55:00,
2013-04-17 20:00:00,57.9,30.4,30.27,North,4,0.0,1.0,35,0.00,,---,0.00,VWS V14.01,2013-04-18 00:00:00,
2013-04-17 20:05:00,57.5,31.5,30.27,North,4,0.0,0.0,37,0.00,,---,0.00,VWS V14.01,2013-04-18 00:05:00,
2013-04-17 20:10:00,57.1,31.1,30.27,NNW,332,2.0,2.0,37,0.00,,---,0.00,VWS V14.01,2013-04-18 00:10:00,
2013-04-17 20:15:00,56.8,30.8,30.28,North,2,2.0,2.0,37,0.00,,---,0.00,VWS V14.01,2013-04-18 00:15:00,
2013-04-17 20:20:00,56.6,31.3,30.28,North,3,0.0,2.0,38,0.00,,---,0.00,VWS V14.01,2013-04-18 00:20:00,
2013-04-17 20:25:00,56.2,31.0,30.28,North,3,0.0,0.0,38,0.00,,---,0.00,VWS V14.01,2013-04-18 00:25:00,
2013-04-17 20:30:00,55.8,31.2,30.29,North,3,0.0,0.0,39,0.00,,---,0.00,VWS V14.01,2013-04-18 00:30:00,
2013-04-17 20:35:00,55.3,31.4,30.29,North,3,0.0,0.0,40,0.00,,---,0.00,VWS V14.01,2013-04-18 00:35:00,
2013-04-17 20:40:00,54.8,31.6,30.29,North,3,0.0,1.0,41,0.00,,---,0.00,VWS V14.01,2013-04-18 00:40:00,
2013-04-17 20:45:00,54.6,31.4,30.29,North,3,0.0,0.0,41,0.00,,---,0.00,VWS V14.01,2013-04-18 00:45:00,
2013-04-17 20:50:00,54.3,31.7,30.30,North,3,0.0,2.0,42,0.00,,---,0.00,VWS V14.01,2013-04-18 00:50:00,
2013-04-17 20:55:00,54.2,31.6,30.30,NNE,30,1.0,2.0,42,0.00,,---,0.00,VWS V14.01,2013-04-18 00:55:00,
2013-04-17 21:00:00,54.1,32.1,30.30,NW,323,1.0,2.0,43,0.00,,---,0.00,VWS V14.01,2013-04-18 01:00:00,
2013-04-17 21:05:00,54.1,31.5,30.30,NNW,331,0.0,1.0,42,0.00,,---,0.00,VWS V14.01,2013-04-18 01:05:00,
2013-04-17 21:10:00,54.1,31.5,30.31,North,1,0.0,5.0,42,0.00,,---,0.00,VWS V14.01,2013-04-18 01:10:00,
2013-04-17 21:15:00,54.3,31.7,30.31,NNW,338,1.0,4.0,42,0.00,,---,0.00,VWS V14.01,2013-04-18 01:15:00,
2013-04-17 21:20:00,54.3,31.7,30.31,NNW,341,0.0,2.0,42,0.00,,---,0.00,VWS V14.01,2013-04-18 01:20:00,
2013-04-17 21:25:00,54.2,31.0,30.31,ENE,64,0.0,3.0,41,0.00,,---,0.00,VWS V14.01,2013-04-18 01:25:00,
2013-04-17 21:30:00,54.2,31.0,30.30,East,88,0.0,4.0,41,0.00,,---,0.00,VWS V14.01,2013-04-18 01:30:00,
2013-04-17 21:35:00,54.1,30.9,30.30,East,88,0.0,0.0,41,0.00,,---,0.00,VWS V14.01,2013-04-18 01:35:00,
2013-04-17 21:40:00,53.8,30.7,30.31,NNW,341,0.0,3.0,41,0.00,,---,0.00,VWS V14.01,2013-04-18 01:40:00,
2013-04-17 21:45:00,53.5,31.0,30.31,NNE,30,0.0,3.0,42,0.00,,---,0.00,VWS V14.01,2013-04-18 01:45:00,
2013-04-17 21:50:00,53.2,30.7,30.31,NNE,30,0.0,1.0,42,0.00,,---,0.00,VWS V14.01,2013-04-18 01:50:00,
2013-04-17 21:55:00,53.0,31.1,30.31,NNW,339,1.0,2.0,43,0.00,,---,0.00,VWS V14.01,2013-04-18 01:55:00,
2013-04-17 22:00:00,52.8,30.4,30.31,NNW,339,0.0,1.0,42,0.00,,---,0.00,VWS V14.01,2013-04-18 02:00:00,
2013-04-17 22:05:00,52.5,30.7,30.32,NNW,339,0.0,0.0,43,0.00,,---,0.00,VWS V14.01,2013-04-18 02:05:00,
2013-04-17 22:10:00,52.2,30.4,30.31,NE,46,0.0,2.0,43,0.00,,---,0.00,VWS V14.01,2013-04-18 02:10:00,
2013-04-17 22:15:00,51.9,31.2,30.32,NE,46,0.0,0.0,45,0.00,,---,0.00,VWS V14.01,2013-04-18 02:15:00,
2013-04-17 22:20:00,51.5,30.9,30.32,NE,46,0.0,0.0,45,0.00,,---,0.00,VWS V14.01,2013-04-18 02:20:00,
2013-04-17 22:25:00,51.3,31.2,30.32,NE,45,0.0,1.0,46,0.00,,---,0.00,VWS V14.01,2013-04-18 02:25:00,
2013-04-17 22:30:00,51.0,32.0,30.32,NE,46,0.0,1.0,48,0.00,,---,0.00,VWS V14.01,2013-04-18 02:30:00,
2013-04-17 22:35:00,50.6,30.6,30.32,NE,46,0.0,1.0,46,0.00,,---,0.00,VWS V14.01,2013-04-18 02:35:00,
2013-04-17 22:40:00,50.4,30.4,30.32,NE,45,0.0,1.0,46,0.00,,---,0.00,VWS V14.01,2013-04-18 02:40:00,
2013-04-17 22:45:00,50.3,30.9,30.32,NE,50,0.0,2.0,47,0.00,,---,0.00,VWS V14.01,2013-04-18 02:45:00,
2013-04-17 22:50:00,50.2,30.8,30.32,NE,50,0.0,0.0,47,0.00,,---,0.00,VWS V14.01,2013-04-18 02:50:00,
2013-04-17 22:55:00,50.0,30.6,30.32,NE,50,0.0,0.0,47,0.00,,---,0.00,VWS V14.01,2013-04-18 02:55:00,
2013-04-17 23:00:00,49.6,30.7,30.33,NE,50,0.0,1.0,48,0.00,,---,0.00,VWS V14.01,2013-04-18 03:00:00,
2013-04-17 23:05:00,49.3,30.5,30.33,NE,50,0.0,0.0,48,0.00,,---,0.00,VWS V14.01,2013-04-18 03:05:00,
2013-04-17 23:10:00,49.0,31.2,30.33,NE,50,0.0,0.0,50,0.00,,---,0.00,VWS V14.01,2013-04-18 03:10:00,
2013-04-17 23:15:00,48.6,32.3,30.33,NE,50,0.0,0.0,53,0.00,,---,0.00,VWS V14.01,2013-04-18 03:15:00,
2013-04-17 23:20:00,48.2,33.3,30.33,NE,50,0.0,0.0,56,0.00,,---,0.00,VWS V14.01,2013-04-18 03:20:00,
2013-04-17 23:25:00,47.8,32.0,30.32,NE,50,0.0,0.0,54,0.00,,---,0.00,VWS V14.01,2013-04-18 03:25:00,
2013-04-17 23:30:00,47.4,31.6,30.32,NE,50,0.0,0.0,54,0.00,,---,0.00,VWS V14.01,2013-04-18 03:30:00,
2013-04-17 23:35:00,47.0,31.7,30.32,NE,50,0.0,0.0,55,0.00,,---,0.00,VWS V14.01,2013-04-18 03:35:00,
2013-04-17 23:40:00,46.7,31.9,30.33,NE,50,0.0,0.0,56,0.00,,---,0.00,VWS V14.01,2013-04-18 03:40:00,
2013-04-17 23:45:00,46.5,31.7,30.33,NE,50,0.0,0.0,56,0.00,,---,0.00,VWS V14.01,2013-04-18 03:45:00,
2013-04-17 23:50:00,46.3,31.9,30.33,NE,50,0.0,0.0,57,0.00,,---,0.00,VWS V14.01,2013-04-18 03:50:00,
2013-04-17 23:55:00,46.0,31.2,30.33,NE,50,0.0,0.0,56,0.00,,---,0.00,VWS V14.01,2013-04-18 03:55:00,